createdAt,value
2022-11-22T00:00:42.469Z,0.80
2022-11-22T00:03:09.867Z,0.70
2022-11-22T00:05:37.161Z,0.70
2022-11-22T00:08:04.465Z,0.70
2022-11-22T00:10:31.697Z,0.70
2022-11-22T00:12:58.727Z,0.70
2022-11-22T00:15:25.855Z,0.70
2022-11-22T00:17:52.816Z,0.70
2022-11-22T00:20:19.768Z,0.60
2022-11-22T00:22:46.953Z,0.60
2022-11-22T00:25:14.704Z,0.60
2022-11-22T00:27:41.911Z,0.60
2022-11-22T00:30:09.269Z,0.60
2022-11-22T00:32:36.281Z,0.60
2022-11-22T00:35:03.488Z,0.50
2022-11-22T00:37:30.482Z,0.60
2022-11-22T00:39:57.437Z,0.60
2022-11-22T00:42:24.409Z,0.60
2022-11-22T00:44:51.428Z,0.60
2022-11-22T00:47:18.429Z,0.50
2022-11-22T00:49:45.398Z,0.40
2022-11-22T00:52:12.378Z,0.50
2022-11-22T00:54:39.403Z,0.50
2022-11-22T00:57:06.403Z,0.60
2022-11-22T00:59:33.348Z,0.60
2022-11-22T01:02:00.291Z,0.60
2022-11-22T01:04:27.241Z,0.60
2022-11-22T01:06:54.236Z,0.60
2022-11-22T01:09:23.361Z,0.60
2022-11-22T01:11:50.389Z,0.60
2022-11-22T01:14:18.291Z,0.60
2022-11-22T01:16:45.459Z,0.70
2022-11-22T01:19:12.736Z,0.70
2022-11-22T01:21:39.931Z,0.80
2022-11-22T01:24:07.192Z,0.70
2022-11-22T01:26:34.288Z,0.80
2022-11-22T01:29:01.239Z,0.80
2022-11-22T01:31:30.022Z,0.80
2022-11-22T01:33:57.749Z,0.80
2022-11-22T01:36:25.220Z,0.80
2022-11-22T01:38:52.544Z,0.80
2022-11-22T01:41:19.543Z,0.80
2022-11-22T01:43:46.557Z,0.80
2022-11-22T01:46:30.215Z,0.80
2022-11-22T01:49:05.369Z,0.90
2022-11-22T01:51:46.308Z,0.90
2022-11-22T01:54:18.471Z,0.90
2022-11-22T01:56:50.522Z,0.90
2022-11-22T01:59:22.681Z,1.00
2022-11-22T02:01:49.825Z,1.00
2022-11-22T02:04:18.560Z,1.00
2022-11-22T02:07:04.122Z,1.00
2022-11-22T02:09:32.805Z,1.00
2022-11-22T02:12:03.858Z,1.10
2022-11-22T02:14:32.167Z,1.10
2022-11-22T02:16:59.150Z,1.00
2022-11-22T02:19:45.018Z,1.10
2022-11-22T02:22:24.113Z,1.10
2022-11-22T02:24:59.752Z,1.10
2022-11-22T02:27:26.768Z,1.20
2022-11-22T02:29:53.842Z,1.10
2022-11-22T02:32:20.839Z,1.10
2022-11-22T02:34:50.510Z,1.10
2022-11-22T02:37:27.164Z,1.10
2022-11-22T02:40:00.045Z,1.10
2022-11-22T02:42:29.475Z,1.10
2022-11-22T02:44:56.432Z,1.10
2022-11-22T02:47:23.488Z,1.10
2022-11-22T02:49:52.385Z,1.10
2022-11-22T02:52:19.612Z,1.20
2022-11-22T02:54:46.811Z,1.20
2022-11-22T02:57:14.274Z,1.20
2022-11-22T02:59:41.281Z,1.20
2022-11-22T03:02:08.315Z,1.20
2022-11-22T03:04:35.343Z,1.20
2022-11-22T03:07:02.660Z,1.10
2022-11-22T03:09:30.396Z,1.10
2022-11-22T03:11:57.741Z,1.10
2022-11-22T03:14:24.701Z,1.10
2022-11-22T03:16:52.130Z,1.10
2022-11-22T03:19:19.366Z,1.10
2022-11-22T03:21:46.543Z,1.10
2022-11-22T03:24:14.034Z,1.10
2022-11-22T03:26:41.013Z,1.10
2022-11-22T03:29:07.990Z,1.20
2022-11-22T03:31:35.883Z,1.20
2022-11-22T03:34:02.934Z,1.20
2022-11-22T03:36:30.010Z,1.10
2022-11-22T03:38:56.959Z,1.20
2022-11-22T03:41:23.913Z,1.20
2022-11-22T03:43:50.929Z,1.20
2022-11-22T03:46:21.870Z,1.20
2022-11-22T03:48:48.994Z,1.20
2022-11-22T03:51:15.930Z,1.20
2022-11-22T03:53:43.038Z,1.20
2022-11-22T03:56:10.029Z,1.20
2022-11-22T03:58:37.123Z,1.20
2022-11-22T04:01:04.225Z,1.20
2022-11-22T04:03:31.927Z,1.20
2022-11-22T04:05:58.906Z,1.20
2022-11-22T04:08:25.862Z,1.20
2022-11-22T04:10:52.806Z,1.20
2022-11-22T04:13:20.539Z,1.20
2022-11-22T04:15:47.496Z,1.20
2022-11-22T04:18:15.093Z,1.20
2022-11-22T04:21:00.509Z,1.10
2022-11-22T04:23:33.601Z,1.10
2022-11-22T04:26:01.137Z,1.10
2022-11-22T04:28:47.058Z,1.00
2022-11-22T04:31:33.549Z,1.00
2022-11-22T04:34:00.501Z,0.90
2022-11-22T04:36:27.489Z,1.00
2022-11-22T04:38:54.427Z,0.90
2022-11-22T04:41:21.510Z,0.90
2022-11-22T04:44:06.950Z,0.90
2022-11-22T04:46:34.027Z,0.80
2022-11-22T04:49:00.957Z,0.80
2022-11-22T04:51:46.297Z,0.70
2022-11-22T04:54:13.290Z,0.60
2022-11-22T04:56:40.331Z,0.50
2022-11-22T04:59:07.288Z,0.50
2022-11-22T05:01:34.307Z,0.50
2022-11-22T05:04:01.393Z,0.40
2022-11-22T05:06:28.404Z,0.50
2022-11-22T05:08:55.482Z,0.40
2022-11-22T05:11:22.429Z,0.40
2022-11-22T05:13:49.369Z,0.40
2022-11-22T05:16:16.601Z,0.40
2022-11-22T05:18:43.919Z,0.40
2022-11-22T05:21:13.291Z,0.40
2022-11-22T05:23:55.812Z,0.40
2022-11-22T05:26:31.554Z,0.40
2022-11-22T05:28:59.361Z,0.40
2022-11-22T05:31:27.730Z,0.40
2022-11-22T05:33:57.554Z,0.40
2022-11-22T05:36:25.216Z,0.40
2022-11-22T05:38:52.550Z,0.30
2022-11-22T05:41:19.957Z,0.30
2022-11-22T05:43:46.974Z,0.30
2022-11-22T05:46:24.749Z,0.30
2022-11-22T05:48:54.022Z,0.20
2022-11-22T05:51:24.255Z,0.20
2022-11-22T05:53:53.158Z,0.20
2022-11-22T05:56:23.012Z,0.30
2022-11-22T05:58:50.809Z,0.30
2022-11-22T06:01:20.624Z,0.40
2022-11-22T06:03:48.637Z,0.40
2022-11-22T06:06:16.433Z,0.40
2022-11-22T06:08:48.486Z,0.50
2022-11-22T06:11:21.891Z,0.50
2022-11-22T06:13:51.341Z,0.40
2022-11-22T06:16:18.589Z,0.40
2022-11-22T06:18:46.077Z,0.40
2022-11-22T06:21:19.114Z,0.50
2022-11-22T06:23:46.407Z,0.50
2022-11-22T06:26:16.114Z,0.50
2022-11-22T06:28:43.476Z,0.60
2022-11-22T06:31:20.027Z,0.60
2022-11-22T06:33:47.334Z,0.60
2022-11-22T06:36:17.188Z,0.60
2022-11-22T06:38:45.127Z,0.60
2022-11-22T06:41:15.077Z,0.60
2022-11-22T06:43:48.355Z,0.60
2022-11-22T06:46:24.187Z,0.60
2022-11-22T06:48:51.386Z,0.60
2022-11-22T06:51:24.390Z,0.60
2022-11-22T06:53:52.661Z,0.60
2022-11-22T06:56:23.163Z,0.60
2022-11-22T06:58:51.937Z,0.60
2022-11-22T07:01:21.841Z,0.50
2022-11-22T07:03:49.841Z,0.50
2022-11-22T07:06:18.478Z,0.50
2022-11-22T07:08:46.253Z,0.50
2022-11-22T07:11:19.365Z,0.50
2022-11-22T07:13:47.498Z,0.50
2022-11-22T07:16:20.122Z,0.50
2022-11-22T07:18:48.380Z,0.50
2022-11-22T07:21:18.498Z,0.50
2022-11-22T07:23:47.749Z,0.50
2022-11-22T07:26:16.415Z,0.60
2022-11-22T07:28:44.824Z,0.50
2022-11-22T07:31:14.054Z,0.50
2022-11-22T07:33:41.520Z,0.60
2022-11-22T07:36:13.616Z,0.60
2022-11-22T07:38:40.633Z,0.60
2022-11-22T07:41:08.222Z,0.60
2022-11-22T07:43:35.980Z,0.60
2022-11-22T07:46:08.348Z,0.60
2022-11-22T07:48:35.783Z,0.70
2022-11-22T07:51:07.272Z,0.70
2022-11-22T07:53:35.924Z,0.70
2022-11-22T07:56:04.960Z,0.70
2022-11-22T07:58:32.748Z,0.70
2022-11-22T08:01:08.593Z,0.70
2022-11-22T08:03:36.078Z,0.70
2022-11-22T08:06:04.844Z,0.80
2022-11-22T08:08:32.461Z,0.80
2022-11-22T08:10:59.394Z,0.80
2022-11-22T08:13:26.812Z,0.80
2022-11-22T08:15:55.168Z,0.80
2022-11-22T08:18:23.357Z,0.80
2022-11-22T08:20:50.307Z,0.80
2022-11-22T08:23:17.335Z,0.80
2022-11-22T08:25:44.308Z,0.90
2022-11-22T08:28:11.433Z,0.80
2022-11-22T08:30:38.381Z,0.80
2022-11-22T08:33:05.311Z,0.80
2022-11-22T08:35:33.605Z,0.90
2022-11-22T08:38:00.635Z,0.80
2022-11-22T08:40:27.680Z,0.90
2022-11-22T08:42:56.384Z,0.80
2022-11-22T08:45:23.769Z,0.80
2022-11-22T08:47:52.537Z,0.80
2022-11-22T08:50:19.509Z,0.70
2022-11-22T08:52:46.601Z,0.70
2022-11-22T08:55:13.586Z,0.60
2022-11-22T08:57:40.754Z,0.50
2022-11-22T09:00:08.901Z,0.50
2022-11-22T09:02:35.891Z,0.50
2022-11-22T09:05:03.088Z,0.50
2022-11-22T09:10:17.279Z,0.50
2022-11-22T09:12:45.618Z,0.50
2022-11-22T09:15:13.606Z,0.60
2022-11-22T09:17:40.764Z,0.60
2022-11-22T09:20:08.412Z,0.70
2022-11-22T09:22:35.737Z,0.70
2022-11-22T09:25:03.588Z,0.70
2022-11-22T09:27:31.567Z,0.80
2022-11-22T09:29:58.561Z,0.80
2022-11-22T09:32:30.686Z,0.80
2022-11-22T09:35:00.371Z,0.90
2022-11-22T09:37:27.281Z,0.90
2022-11-22T09:39:54.300Z,0.80
2022-11-22T09:42:24.233Z,0.80
2022-11-22T09:45:22.482Z,0.80
2022-11-22T09:48:14.840Z,0.80
2022-11-22T09:51:00.519Z,0.70
2022-11-22T09:53:34.134Z,0.70
2022-11-22T09:56:05.914Z,0.70
2022-11-22T09:58:43.620Z,0.80
2022-11-22T10:01:28.362Z,0.90
2022-11-22T10:04:06.353Z,1.00
2022-11-22T10:06:41.018Z,1.10
2022-11-22T10:09:45.405Z,1.10
2022-11-22T10:12:37.512Z,1.20
2022-11-22T10:15:27.754Z,1.30
2022-11-22T10:18:17.828Z,1.30
2022-11-22T10:20:48.760Z,1.30
2022-11-22T10:23:22.199Z,1.30
2022-11-22T10:25:58.902Z,1.30
2022-11-22T10:28:35.963Z,1.30
2022-11-22T10:31:15.263Z,1.30
2022-11-22T10:33:57.308Z,1.30
2022-11-22T10:36:24.210Z,1.30
2022-11-22T10:39:00.269Z,1.40
2022-11-22T10:41:40.001Z,1.50
2022-11-22T10:44:14.553Z,1.90
2022-11-22T10:46:44.559Z,2.20
2022-11-22T10:49:53.087Z,2.40
2022-11-22T10:52:26.577Z,2.60
2022-11-22T10:55:23.043Z,2.80
2022-11-22T10:57:52.691Z,3.20
2022-11-22T11:00:24.968Z,4.00
2022-11-22T11:03:10.127Z,4.70
2022-11-22T11:10:02.844Z,6.10
2022-11-22T11:12:00.854Z,7.40
2022-11-22T11:14:53.570Z,8.00
2022-11-22T11:17:27.003Z,6.80
2022-11-22T11:19:57.744Z,6.10
2022-11-22T11:22:51.833Z,6.80
2022-11-22T11:25:40.647Z,8.00
2022-11-22T11:28:10.341Z,8.60
2022-11-22T11:30:43.998Z,7.00
2022-11-22T11:33:38.536Z,6.10
2022-11-22T11:36:22.213Z,5.80
2022-11-22T11:38:56.019Z,6.20
2022-11-22T11:41:38.675Z,6.90
2022-11-22T11:44:32.179Z,7.80
2022-11-22T11:46:59.645Z,9.10
2022-11-22T11:49:32.582Z,10.10
2022-11-22T11:52:08.379Z,10.30
2022-11-22T11:54:44.095Z,10.20
2022-11-22T11:57:19.622Z,9.20
2022-11-22T11:59:49.970Z,8.60
2022-11-22T12:02:22.536Z,8.40
2022-11-22T12:04:56.354Z,8.20
2022-11-22T12:07:25.743Z,7.30
2022-11-22T12:09:55.414Z,6.80
2022-11-22T12:12:49.422Z,6.60
2022-11-22T12:15:47.893Z,6.00
2022-11-22T12:18:41.301Z,5.30
2022-11-22T12:21:34.184Z,4.50
2022-11-22T12:27:13.507Z,3.70
2022-11-22T12:29:43.849Z,3.30
2022-11-22T12:32:32.544Z,2.90
2022-11-22T12:35:07.285Z,2.60
2022-11-22T12:37:51.879Z,2.40
2022-11-22T12:40:25.544Z,2.20
2022-11-22T12:42:58.332Z,2.00
2022-11-22T12:45:38.858Z,1.80
2022-11-22T12:48:13.908Z,1.80
2022-11-22T12:50:49.431Z,1.70
2022-11-22T12:53:36.498Z,1.60
2022-11-22T12:56:10.308Z,1.50
2022-11-22T12:58:43.094Z,1.50
2022-11-22T13:01:20.720Z,1.50
2022-11-22T13:04:03.518Z,1.50
2022-11-22T13:06:40.473Z,1.50
2022-11-22T13:09:19.176Z,1.40
2022-11-22T13:11:57.991Z,1.40
2022-11-22T13:14:45.081Z,1.40
2022-11-22T13:17:15.579Z,1.40
2022-11-22T13:20:00.449Z,1.40
2022-11-22T13:22:47.012Z,1.40
2022-11-22T13:25:51.748Z,1.40
2022-11-22T13:28:23.202Z,1.30
2022-11-22T13:31:06.945Z,1.30
2022-11-22T13:33:36.190Z,1.30
2022-11-22T13:36:24.918Z,1.30
2022-11-22T13:38:54.430Z,1.30
2022-11-22T13:41:48.812Z,1.30
2022-11-22T13:44:28.465Z,1.30
2022-11-22T13:47:06.288Z,1.20
2022-11-22T13:49:48.017Z,1.30
2022-11-22T13:52:15.647Z,1.30
2022-11-22T13:54:58.791Z,1.30
2022-11-22T13:57:31.892Z,1.20
2022-11-22T14:00:14.355Z,1.20
2022-11-22T14:02:44.346Z,1.20
2022-11-22T14:05:29.531Z,1.20
2022-11-22T14:07:57.654Z,1.20
2022-11-22T14:10:30.549Z,1.20
2022-11-22T14:13:35.229Z,1.20
2022-11-22T14:16:17.102Z,1.10
2022-11-22T14:19:05.108Z,1.10
2022-11-22T14:21:53.959Z,1.10
2022-11-22T14:24:39.368Z,1.10
2022-11-22T14:27:32.380Z,1.10
2022-11-22T14:30:19.955Z,1.20
2022-11-22T14:33:00.426Z,1.20
2022-11-22T14:35:37.567Z,1.20
2022-11-22T14:38:31.966Z,1.20
2022-11-22T14:41:26.973Z,1.20
2022-11-22T14:44:02.653Z,1.30
2022-11-22T14:46:52.832Z,1.30
2022-11-22T14:49:30.716Z,1.30
2022-11-22T14:51:58.781Z,1.30
2022-11-22T14:54:33.709Z,1.30
2022-11-22T14:57:05.791Z,1.30
2022-11-22T15:00:10.488Z,1.20
2022-11-22T15:02:49.447Z,1.30
2022-11-22T15:09:13.537Z,1.20
2022-11-22T15:09:14.159Z,1.20
2022-11-22T15:11:37.920Z,1.30
2022-11-22T15:14:20.352Z,1.40
2022-11-22T15:59:44.941Z,1.90
2022-11-22T16:02:26.294Z,1.90
2022-11-22T16:06:09.640Z,1.90
2022-11-22T16:07:53.260Z,1.90
2022-11-22T16:10:50.172Z,1.90
2022-11-22T16:13:20.596Z,1.90
2022-11-22T16:16:12.644Z,1.90
2022-11-22T16:18:42.755Z,1.90
2022-11-22T16:21:12.752Z,2.00
2022-11-22T16:23:45.250Z,2.00
2022-11-22T16:26:22.198Z,2.00
2022-11-22T16:28:51.613Z,2.00
2022-11-22T16:31:22.842Z,2.00
2022-11-22T16:33:51.186Z,2.00
2022-11-22T16:36:19.778Z,2.00
2022-11-22T16:38:46.849Z,2.00
2022-11-22T16:41:25.403Z,2.00
2022-11-22T16:43:55.258Z,1.90
2022-11-22T16:46:22.748Z,1.80
2022-11-22T16:48:49.979Z,1.80
2022-11-22T16:51:24.871Z,1.70
2022-11-22T16:53:53.474Z,1.80
2022-11-22T16:56:26.674Z,1.80
2022-11-22T16:58:56.281Z,1.90
2022-11-22T17:01:26.559Z,1.90
2022-11-22T17:03:56.195Z,1.90
2022-11-22T17:06:25.898Z,1.90
2022-11-22T17:08:55.164Z,1.80
2022-11-22T17:11:24.822Z,1.70
2022-11-22T17:13:51.852Z,1.70
2022-11-22T17:16:19.406Z,1.70
2022-11-22T17:18:49.870Z,1.70
2022-11-22T17:21:32.769Z,1.60
2022-11-22T17:24:03.336Z,1.60
2022-11-22T17:26:30.408Z,1.50
2022-11-22T17:28:57.430Z,1.40
2022-11-22T17:31:25.369Z,1.40
2022-11-22T17:33:57.341Z,1.40
2022-11-22T17:36:32.937Z,1.30
2022-11-22T17:39:02.024Z,1.20
2022-11-22T17:41:30.465Z,1.30
2022-11-22T17:43:57.936Z,1.20
2022-11-22T17:46:25.058Z,1.20
2022-11-22T17:48:58.127Z,1.20
2022-11-22T17:51:26.043Z,1.20
2022-11-22T17:53:53.214Z,1.10
2022-11-22T17:56:20.417Z,1.20
2022-11-22T17:58:48.075Z,1.20
2022-11-22T18:01:19.658Z,1.20
2022-11-22T18:03:47.596Z,1.20
2022-11-22T18:06:16.440Z,1.30
2022-11-22T18:08:46.973Z,1.30
2022-11-22T18:11:15.215Z,1.40
2022-11-22T18:13:42.330Z,1.40
2022-11-22T18:16:14.174Z,1.40
2022-11-22T18:18:58.053Z,1.40
2022-11-22T18:21:26.620Z,1.30
2022-11-22T18:23:53.685Z,1.50
2022-11-22T18:29:40.763Z,1.50
2022-11-22T18:31:56.070Z,1.40
2022-11-22T18:34:23.369Z,1.30
2022-11-22T18:37:06.764Z,1.20
2022-11-22T18:39:37.331Z,1.20
2022-11-22T18:42:07.663Z,1.10
2022-11-22T18:44:35.120Z,1.00
2022-11-22T18:47:02.143Z,1.00
2022-11-22T18:49:29.598Z,1.10
2022-11-22T18:51:56.903Z,1.10
2022-11-22T18:54:24.169Z,1.20
2022-11-22T18:56:51.933Z,1.20
2022-11-22T18:59:19.178Z,1.30
2022-11-22T19:01:46.438Z,1.30
2022-11-22T19:04:15.442Z,1.40
2022-11-22T19:06:43.357Z,1.30
2022-11-22T19:09:11.593Z,1.30
2022-11-22T19:11:39.115Z,1.40
2022-11-22T19:14:06.426Z,1.30
2022-11-22T19:16:33.607Z,1.40
2022-11-22T19:19:00.674Z,1.40
2022-11-22T19:21:28.854Z,1.40
2022-11-22T19:23:56.633Z,1.50
2022-11-22T19:26:26.932Z,1.40
2022-11-22T19:28:56.153Z,1.40
2022-11-22T19:31:29.117Z,1.50
2022-11-22T19:33:56.847Z,1.50
2022-11-22T19:36:32.274Z,1.50
2022-11-22T19:39:00.857Z,1.50
2022-11-22T19:41:27.896Z,1.50
2022-11-22T19:43:56.558Z,1.40
2022-11-22T19:46:24.531Z,1.40
2022-11-22T19:48:52.806Z,1.40
2022-11-22T19:51:20.698Z,1.40
2022-11-22T19:53:47.889Z,1.40
2022-11-22T19:56:17.230Z,1.40
2022-11-22T19:58:49.486Z,1.40
2022-11-22T20:01:16.775Z,1.30
2022-11-22T20:03:44.971Z,1.30
2022-11-22T20:06:13.739Z,1.30
2022-11-22T20:08:41.797Z,1.20
2022-11-22T20:11:11.537Z,1.20
2022-11-22T20:13:40.989Z,1.20
2022-11-22T20:16:14.049Z,1.20
2022-11-22T20:18:41.519Z,1.20
2022-11-22T20:21:10.607Z,1.20
2022-11-22T20:23:38.914Z,1.20
2022-11-22T20:26:11.438Z,1.10
2022-11-22T20:28:40.437Z,1.10
2022-11-22T20:31:14.569Z,1.10
2022-11-22T20:33:44.158Z,1.00
2022-11-22T20:36:14.317Z,1.10
2022-11-22T20:38:42.827Z,1.10
2022-11-22T20:41:12.264Z,1.10
2022-11-22T20:43:39.498Z,1.10
2022-11-22T20:46:11.479Z,1.10
2022-11-22T20:48:39.868Z,1.10
2022-11-22T20:51:09.637Z,1.20
2022-11-22T20:53:37.277Z,1.20
2022-11-22T20:56:04.730Z,1.30
2022-11-22T20:58:32.350Z,1.30
2022-11-22T21:00:59.685Z,1.40
2022-11-22T21:03:28.370Z,1.40
2022-11-22T21:05:55.785Z,1.40
2022-11-22T21:08:23.250Z,1.40
2022-11-22T21:10:50.221Z,1.30
2022-11-22T21:13:17.754Z,1.40
2022-11-22T21:15:44.930Z,1.30
2022-11-22T21:18:27.340Z,1.30
2022-11-22T21:20:54.339Z,1.30
2022-11-22T21:23:21.358Z,1.30
2022-11-22T21:25:50.545Z,1.40
2022-11-22T21:28:17.542Z,1.40
2022-11-22T21:30:44.816Z,1.40
2022-11-22T21:33:11.853Z,1.40
2022-11-22T21:35:38.846Z,1.40
2022-11-22T21:38:05.796Z,1.30
2022-11-22T21:40:32.923Z,1.30
2022-11-22T21:42:59.887Z,1.30
2022-11-22T21:45:26.800Z,1.20
2022-11-22T21:47:53.925Z,1.20
2022-11-22T21:50:20.969Z,1.20
2022-11-22T21:52:47.875Z,1.10
2022-11-22T21:55:15.537Z,1.20
2022-11-22T21:57:42.448Z,1.10
2022-11-22T22:00:10.336Z,1.00
2022-11-22T22:02:37.379Z,1.00
2022-11-22T22:05:04.663Z,1.00
2022-11-22T22:07:52.491Z,1.00
2022-11-22T22:10:18.739Z,1.00
2022-11-22T22:12:45.739Z,1.00
2022-11-22T22:15:13.263Z,1.00
2022-11-22T22:17:40.307Z,1.10
2022-11-22T22:20:07.933Z,1.10
2022-11-22T22:22:38.143Z,1.20
2022-11-22T22:25:06.347Z,1.30
2022-11-22T22:27:33.882Z,1.30
2022-11-22T22:30:00.840Z,1.30
2022-11-22T22:32:28.429Z,1.30
2022-11-22T22:34:55.402Z,1.40
2022-11-22T22:37:22.443Z,1.40
2022-11-22T22:39:51.686Z,1.40
2022-11-22T22:42:19.392Z,1.40
2022-11-22T22:44:46.647Z,1.40
2022-11-22T22:47:14.353Z,1.40
2022-11-22T22:49:41.363Z,1.40
2022-11-22T22:52:08.357Z,1.40
2022-11-22T22:54:35.977Z,1.50
2022-11-22T22:57:03.322Z,1.50
2022-11-22T22:59:30.483Z,1.50
2022-11-22T23:01:57.885Z,1.50
2022-11-22T23:04:25.006Z,1.50
2022-11-22T23:06:51.974Z,1.40
2022-11-22T23:09:19.032Z,1.40
2022-11-22T23:12:04.688Z,1.40
2022-11-22T23:14:31.626Z,1.40
2022-11-22T23:16:58.642Z,1.40
2022-11-22T23:19:26.635Z,1.40
2022-11-22T23:21:54.771Z,1.40
2022-11-22T23:24:21.824Z,1.40
2022-11-22T23:26:48.810Z,1.40
2022-11-22T23:29:15.807Z,1.40
2022-11-22T23:31:42.798Z,1.40
2022-11-22T23:34:11.548Z,1.40
2022-11-22T23:36:41.016Z,1.40
2022-11-22T23:39:08.940Z,1.40
2022-11-22T23:41:36.181Z,1.40
2022-11-22T23:44:03.651Z,1.40
2022-11-22T23:46:30.732Z,1.30
2022-11-22T23:48:59.921Z,1.30
2022-11-22T23:51:28.438Z,1.30
2022-11-22T23:53:56.422Z,1.30
2022-11-22T23:56:23.848Z,1.30
2022-11-22T23:58:51.842Z,1.30
